Airfield :
LOGIN :

Register | Disclaimer

   EN    FR    IT 

 










Legend :    VFR   Marginal VFR   IFR   Intensive IFR   Very Intensive IFR
Visi :
Ceiling :
>= 8 km
>= 3000ft
5 to 8 km
1000 to 3000 ft
1500m to 5 km
500 to 1000 ft
800 to 1500m
200 to 500 ft
< 800m
< 200 ft
Symbols :   Thunderstorms  Fog  Heavy snow  Heavy precipitations  Wind > 20 kt
SIGMETs :     Misc.  Thunderstorms  Icing  Turbulence  Mountain Waves  Volcanic Ashes






- Airport Elevation : 2031 ft


LEGT - Madrid Getafe

CURRENT METAR :
  • 041500Z 29009KT 250V010 CAVOK 32/09 Q1016

EXPIRED METARs :
  • 041430Z 33012KT 290V010 CAVOK 31/08 Q1017
  • 041400Z 30009KT 250V010 CAVOK 31/10 Q1017
  • 041330Z 33010KT 270V020 CAVOK 31/10 Q1017
  • 041300Z 27012KT 240V320 CAVOK 30/11 Q1017
  • 041230Z 30011G21KT 250V350 CAVOK 29/12 Q1017

TAF TAF LEGT
Valid from the 04 at 12:00 until the 05 at 12:00 UTC


041100Z 0412/0512 31012KT CAVOK TX32/0415Z TN18/0505Z
PROB30
TEMPO 0413/0420 31012G25KT
BECMG 0419/0421 VRB05KT



MET'MAP, your aeronautical weather chart ! - Copyright ORBIFLY December 2007 - Disclaimer

ORBIFLY MET'MAP TEAM :

Programming & Development : Alexandra Zaïnal
Concept & original design : Baudouin d'Aumeries
Assistance for programming : Marc-Olivier Méhu
Technical & hardware support : Manuel Goepfert

Contact : metmap@orbifly.com




SOURCES & CREDITS :

   NOAA